createdAt,value
2023-05-02T00:00:17.240Z,1011.60
2023-05-02T00:00:26.640Z,1011.68
2023-05-02T00:00:36.031Z,1011.70
2023-05-02T00:00:45.453Z,1011.65
2023-05-02T00:00:54.855Z,1011.66
2023-05-02T00:01:04.219Z,1011.66
2023-05-02T00:01:23.027Z,1011.67
2023-05-02T00:01:32.401Z,1011.68
2023-05-02T00:01:41.838Z,1011.66
2023-05-02T00:01:51.237Z,1011.69
2023-05-02T00:02:00.646Z,1011.62
2023-05-02T00:02:10.091Z,1011.73
2023-05-02T00:02:28.916Z,1011.64
2023-05-02T00:02:38.338Z,1011.70
2023-05-02T00:02:47.657Z,1011.65
2023-05-02T00:02:57.191Z,1011.70
2023-05-02T00:03:06.574Z,1011.69
2023-05-02T00:03:15.958Z,1011.69
2023-05-02T00:03:34.786Z,1011.67
2023-05-02T00:03:44.218Z,1011.69
2023-05-02T00:03:53.542Z,1011.70
2023-05-02T00:04:02.943Z,1011.69
2023-05-02T00:04:12.400Z,1011.67
2023-05-02T00:04:21.733Z,1011.71
2023-05-02T00:04:40.523Z,1011.68
2023-05-02T00:04:52.837Z,1011.71
2023-05-02T00:05:02.245Z,1011.68
2023-05-02T00:05:11.618Z,1011.72
2023-05-02T00:05:20.997Z,1011.65
2023-05-02T00:05:30.391Z,1011.74
2023-05-02T00:05:49.162Z,1011.70
2023-05-02T00:05:58.587Z,1011.66
2023-05-02T00:06:07.956Z,1011.68
2023-05-02T00:06:17.391Z,1011.66
2023-05-02T00:06:26.774Z,1011.62
2023-05-02T00:06:36.267Z,1011.64
2023-05-02T00:06:55.057Z,1011.65
2023-05-02T00:07:04.387Z,1011.63
2023-05-02T00:07:13.768Z,1011.64
2023-05-02T00:07:23.152Z,1011.60
2023-05-02T00:07:32.523Z,1011.58
2023-05-02T00:07:41.927Z,1011.71
2023-05-02T00:08:00.772Z,1011.60
2023-05-02T00:08:10.191Z,1011.57
2023-05-02T00:08:19.584Z,1011.68
2023-05-02T00:08:28.987Z,1011.60
2023-05-02T00:08:38.387Z,1011.63
2023-05-02T00:08:47.806Z,1011.68
2023-05-02T00:09:06.600Z,1011.57
2023-05-02T00:09:16.003Z,1011.58
2023-05-02T00:09:25.398Z,1011.58
2023-05-02T00:09:34.784Z,1011.58
2023-05-02T00:09:44.167Z,1011.61
2023-05-02T00:09:53.573Z,1011.62
2023-05-02T00:10:12.337Z,1011.64
2023-05-02T00:10:21.724Z,1011.60
2023-05-02T00:10:31.139Z,1011.59
2023-05-02T00:10:40.523Z,1011.55
2023-05-02T00:10:49.919Z,1011.62
2023-05-02T00:10:59.311Z,1011.60
2023-05-02T00:11:18.110Z,1011.61
2023-05-02T00:11:27.517Z,1011.60
2023-05-02T00:11:36.889Z,1011.64
2023-05-02T00:11:46.275Z,1011.59
2023-05-02T00:11:55.661Z,1011.60
2023-05-02T00:12:05.054Z,1011.60
2023-05-02T00:12:23.829Z,1011.62
2023-05-02T00:12:33.265Z,1011.60
2023-05-02T00:12:42.709Z,1011.64
2023-05-02T00:12:52.025Z,1011.53
2023-05-02T00:13:01.457Z,1011.61
2023-05-02T00:13:10.858Z,1011.68
2023-05-02T00:13:29.656Z,1011.63
2023-05-02T00:13:39.054Z,1011.61
2023-05-02T00:13:48.442Z,1011.58
2023-05-02T00:13:57.821Z,1011.70
2023-05-02T00:14:07.270Z,1011.63
2023-05-02T00:14:16.679Z,1011.67
2023-05-02T00:14:35.465Z,1011.65
2023-05-02T00:14:44.855Z,1011.53
2023-05-02T00:14:54.240Z,1011.65
2023-05-02T00:15:03.640Z,1011.64
2023-05-02T00:15:13.009Z,1011.60
2023-05-02T00:15:22.399Z,1011.61
2023-05-02T00:15:41.223Z,1011.70
2023-05-02T00:15:50.626Z,1011.61
2023-05-02T00:16:00.034Z,1011.67
2023-05-02T00:16:09.414Z,1011.65
2023-05-02T00:16:18.819Z,1011.66
2023-05-02T00:16:28.229Z,1011.63
2023-05-02T00:16:47.068Z,1011.63
2023-05-02T00:16:56.477Z,1011.64
2023-05-02T00:17:05.868Z,1011.66
2023-05-02T00:17:15.265Z,1011.60
2023-05-02T00:17:24.772Z,1011.69
2023-05-02T00:17:34.071Z,1011.61
2023-05-02T00:17:52.888Z,1011.67
2023-05-02T00:18:02.373Z,1011.60
2023-05-02T00:18:11.689Z,1011.66
2023-05-02T00:18:21.024Z,1011.56
2023-05-02T00:18:30.416Z,1011.63
2023-05-02T00:18:39.796Z,1011.62
2023-05-02T00:18:58.590Z,1011.65
2023-05-02T00:19:08.043Z,1011.64
2023-05-02T00:19:17.415Z,1011.67
2023-05-02T00:19:26.834Z,1011.59
2023-05-02T00:19:36.253Z,1011.57
2023-05-02T00:19:45.637Z,1011.73
2023-05-02T00:20:04.510Z,1011.66
2023-05-02T00:20:13.890Z,1011.60
2023-05-02T00:20:23.275Z,1011.76
2023-05-02T00:20:32.672Z,1011.64
2023-05-02T00:20:42.155Z,1011.71
2023-05-02T00:20:51.492Z,1011.69
2023-05-02T00:21:10.243Z,1011.68
2023-05-02T00:21:19.641Z,1011.65
2023-05-02T00:21:29.054Z,1011.71
2023-05-02T00:21:38.514Z,1011.67
2023-05-02T00:21:47.900Z,1011.64
2023-05-02T00:21:57.315Z,1011.73
2023-05-02T00:22:16.126Z,1011.70
2023-05-02T00:22:25.524Z,1011.70
2023-05-02T00:22:34.924Z,1011.65
2023-05-02T00:22:44.358Z,1011.72
2023-05-02T00:22:53.754Z,1011.68
2023-05-02T00:23:03.168Z,1011.73
2023-05-02T00:23:21.958Z,1011.72
2023-05-02T00:23:31.340Z,1011.72
2023-05-02T00:23:40.762Z,1011.71
2023-05-02T00:23:50.168Z,1011.70
2023-05-02T00:23:59.533Z,1011.76
2023-05-02T00:24:08.955Z,1011.64
2023-05-02T00:24:27.770Z,1011.70
2023-05-02T00:24:37.188Z,1011.74
2023-05-02T00:24:46.589Z,1011.69
2023-05-02T00:24:55.986Z,1011.70
2023-05-02T00:25:05.391Z,1011.70
2023-05-02T00:25:14.778Z,1011.72
2023-05-02T00:25:33.572Z,1011.64
2023-05-02T00:25:42.964Z,1011.66
2023-05-02T00:25:52.363Z,1011.70
2023-05-02T00:26:01.762Z,1011.65
2023-05-02T00:26:11.180Z,1011.68
2023-05-02T00:26:20.537Z,1011.63
2023-05-02T00:26:39.326Z,1011.70
2023-05-02T00:26:48.729Z,1011.76
2023-05-02T00:26:58.138Z,1011.74
2023-05-02T00:27:07.519Z,1011.77
2023-05-02T00:27:17.006Z,1011.71
2023-05-02T00:27:26.403Z,1011.66
2023-05-02T00:27:45.203Z,1011.75
2023-05-02T00:27:54.595Z,1011.63
2023-05-02T00:28:04.037Z,1011.69
2023-05-02T00:28:13.425Z,1011.68
2023-05-02T00:28:22.823Z,1011.77
2023-05-02T00:28:32.246Z,1011.68
2023-05-02T00:28:51.105Z,1011.67
2023-05-02T00:29:00.514Z,1011.70
2023-05-02T00:29:09.912Z,1011.66
2023-05-02T00:29:19.338Z,1011.66
2023-05-02T00:29:28.787Z,1011.70
2023-05-02T00:29:38.188Z,1011.66
2023-05-02T00:29:57.158Z,1011.72
2023-05-02T00:30:06.393Z,1011.71
2023-05-02T00:30:15.807Z,1011.62
2023-05-02T00:30:25.217Z,1011.68
2023-05-02T00:30:34.593Z,1011.70
2023-05-02T00:30:44.048Z,1011.73
2023-05-02T00:31:02.920Z,1011.75
2023-05-02T00:31:12.247Z,1011.75
2023-05-02T00:31:21.627Z,1011.69
2023-05-02T00:31:31.043Z,1011.68
2023-05-02T00:31:40.543Z,1011.68
2023-05-02T00:31:49.811Z,1011.71
2023-05-02T00:32:08.612Z,1011.79
2023-05-02T00:32:18.011Z,1011.74
2023-05-02T00:32:27.445Z,1011.78
2023-05-02T00:32:36.827Z,1011.74
2023-05-02T00:32:46.265Z,1011.70
2023-05-02T00:32:55.615Z,1011.75
2023-05-02T00:33:14.448Z,1011.77
2023-05-02T00:33:23.774Z,1011.70
2023-05-02T00:33:33.196Z,1011.67
2023-05-02T00:33:42.594Z,1011.72
2023-05-02T00:33:51.986Z,1011.74
2023-05-02T00:34:01.429Z,1011.71
2023-05-02T00:34:20.239Z,1011.72
2023-05-02T00:34:29.670Z,1011.67
2023-05-02T00:34:39.091Z,1011.73
2023-05-02T00:34:48.493Z,1011.75
2023-05-02T00:34:57.894Z,1011.67
2023-05-02T00:35:07.275Z,1011.69
2023-05-02T00:35:26.067Z,1011.64
2023-05-02T00:35:35.481Z,1011.59
2023-05-02T00:35:44.865Z,1011.73
2023-05-02T00:35:54.276Z,1011.68
2023-05-02T00:36:03.706Z,1011.73
2023-05-02T00:36:13.134Z,1011.69
2023-05-02T00:36:31.933Z,1011.66
2023-05-02T00:36:41.352Z,1011.68
2023-05-02T00:36:50.754Z,1011.64
2023-05-02T00:37:00.157Z,1011.60
2023-05-02T00:37:09.552Z,1011.69
2023-05-02T00:37:18.977Z,1011.73
2023-05-02T00:37:37.796Z,1011.65
2023-05-02T00:37:47.212Z,1011.65
2023-05-02T00:37:56.597Z,1011.67
2023-05-02T00:38:06.003Z,1011.72
2023-05-02T00:38:15.381Z,1011.62
2023-05-02T00:38:24.788Z,1011.68
2023-05-02T00:38:43.631Z,1011.63
2023-05-02T00:38:53.068Z,1011.65
2023-05-02T00:39:02.446Z,1011.63
2023-05-02T00:39:11.849Z,1011.67
2023-05-02T00:39:21.255Z,1011.64
2023-05-02T00:39:30.707Z,1011.64
2023-05-02T00:39:49.543Z,1011.65
2023-05-02T00:39:59.321Z,1011.69
2023-05-02T00:40:08.418Z,1011.64
2023-05-02T00:40:17.775Z,1011.66
2023-05-02T00:40:27.156Z,1011.63
2023-05-02T00:40:36.579Z,1011.64
2023-05-02T00:40:55.387Z,1011.66
2023-05-02T00:41:04.813Z,1011.65
2023-05-02T00:41:14.196Z,1011.64
2023-05-02T00:41:23.606Z,1011.60
2023-05-02T00:41:33.033Z,1011.65
2023-05-02T00:41:42.418Z,1011.59
2023-05-02T00:42:01.203Z,1011.66
2023-05-02T00:42:10.590Z,1011.68
2023-05-02T00:42:19.987Z,1011.63
2023-05-02T00:42:29.374Z,1011.65
2023-05-02T00:42:38.755Z,1011.64
2023-05-02T00:42:48.194Z,1011.67
2023-05-02T00:43:06.992Z,1011.61
2023-05-02T00:43:16.410Z,1011.61
2023-05-02T00:43:25.806Z,1011.62
2023-05-02T00:43:35.196Z,1011.61
2023-05-02T00:43:44.592Z,1011.61
2023-05-02T00:43:54.002Z,1011.62
2023-05-02T00:44:12.839Z,1011.64
2023-05-02T00:44:22.222Z,1011.61
2023-05-02T00:44:31.691Z,1011.63
2023-05-02T00:44:41.095Z,1011.59
2023-05-02T00:44:50.487Z,1011.59
2023-05-02T00:44:59.906Z,1011.61
2023-05-02T00:45:18.723Z,1011.61
2023-05-02T00:45:28.112Z,1011.64
2023-05-02T00:45:37.545Z,1011.55
2023-05-02T00:45:46.934Z,1011.66
2023-05-02T00:45:56.384Z,1011.55
2023-05-02T00:46:05.780Z,1011.66
2023-05-02T00:46:24.562Z,1011.62
2023-05-02T00:46:33.946Z,1011.60
2023-05-02T00:46:43.433Z,1011.61
2023-05-02T00:46:52.912Z,1011.60
2023-05-02T00:47:02.117Z,1011.64
2023-05-02T00:47:11.521Z,1011.64
2023-05-02T00:47:30.437Z,1011.67
2023-05-02T00:47:39.734Z,1011.63
2023-05-02T00:47:49.171Z,1011.62
2023-05-02T00:47:58.573Z,1011.61
2023-05-02T00:48:07.989Z,1011.63
2023-05-02T00:48:17.347Z,1011.60
2023-05-02T00:48:36.261Z,1011.61
2023-05-02T00:48:45.632Z,1011.62
2023-05-02T00:48:55.039Z,1011.64
2023-05-02T00:49:04.412Z,1011.65
2023-05-02T00:49:13.816Z,1011.64
2023-05-02T00:49:23.224Z,1011.64
2023-05-02T00:49:44.570Z,1011.61
2023-05-02T00:49:53.972Z,1011.62
2023-05-02T00:50:03.493Z,1011.65
2023-05-02T00:50:12.828Z,1011.62
2023-05-02T00:50:22.238Z,1011.61
2023-05-02T00:50:31.638Z,1011.65
2023-05-02T00:50:50.444Z,1011.73
2023-05-02T00:50:59.957Z,1011.69
2023-05-02T00:51:09.358Z,1011.67
2023-05-02T00:51:18.764Z,1011.61
2023-05-02T00:51:28.159Z,1011.67
2023-05-02T00:51:37.608Z,1011.59
2023-05-02T00:51:56.416Z,1011.64
2023-05-02T00:52:05.820Z,1011.62
2023-05-02T00:52:15.246Z,1011.65
2023-05-02T00:52:24.649Z,1011.61
2023-05-02T00:52:34.035Z,1011.63
2023-05-02T00:52:43.418Z,1011.60
2023-05-02T00:53:02.220Z,1011.64
2023-05-02T00:53:11.627Z,1011.62
2023-05-02T00:53:21.026Z,1011.64
2023-05-02T00:53:30.425Z,1011.65
2023-05-02T00:53:39.815Z,1011.66
2023-05-02T00:53:49.235Z,1011.60
2023-05-02T00:54:08.011Z,1011.60
2023-05-02T00:54:17.405Z,1011.63
2023-05-02T00:54:26.813Z,1011.63
2023-05-02T00:54:36.222Z,1011.59
2023-05-02T00:54:45.638Z,1011.58
2023-05-02T00:54:55.048Z,1011.59
2023-05-02T00:55:13.815Z,1011.59
2023-05-02T00:55:23.222Z,1011.61
2023-05-02T00:55:32.591Z,1011.58
2023-05-02T00:55:42.013Z,1011.57
2023-05-02T00:55:51.436Z,1011.62
2023-05-02T00:56:00.820Z,1011.55
2023-05-02T00:56:19.679Z,1011.58
2023-05-02T00:56:29.072Z,1011.61
2023-05-02T00:56:38.465Z,1011.61
2023-05-02T00:56:47.870Z,1011.57
2023-05-02T00:56:57.272Z,1011.52
2023-05-02T00:57:06.677Z,1011.51
2023-05-02T00:57:25.438Z,1011.57
2023-05-02T00:57:34.852Z,1011.58
2023-05-02T00:57:44.246Z,1011.60
2023-05-02T00:57:53.631Z,1011.69
2023-05-02T00:58:03.057Z,1011.62
2023-05-02T00:58:12.446Z,1011.63
2023-05-02T00:58:31.258Z,1011.61
2023-05-02T00:58:40.643Z,1011.64
2023-05-02T00:58:50.041Z,1011.56
2023-05-02T00:58:59.439Z,1011.60
2023-05-02T00:59:08.827Z,1011.64
2023-05-02T00:59:18.226Z,1011.59
2023-05-02T00:59:37.104Z,1011.58
2023-05-02T00:59:46.481Z,1011.53
2023-05-02T00:59:55.868Z,1011.64
2023-05-02T01:00:05.306Z,1011.65
2023-05-02T01:00:14.699Z,1011.65
2023-05-02T01:00:24.120Z,1011.60
2023-05-02T01:00:42.933Z,1011.66
2023-05-02T01:00:52.316Z,1011.60
2023-05-02T01:01:01.709Z,1011.55
2023-05-02T01:01:11.158Z,1011.56
2023-05-02T01:01:20.519Z,1011.57
2023-05-02T01:01:29.984Z,1011.61
2023-05-02T01:01:48.793Z,1011.59
2023-05-02T01:01:58.114Z,1011.59
2023-05-02T01:02:07.688Z,1011.62
2023-05-02T01:02:16.901Z,1011.58
2023-05-02T01:02:29.129Z,1011.56
2023-05-02T01:02:38.503Z,1011.59
2023-05-02T01:02:57.266Z,1011.55
2023-05-02T01:03:06.664Z,1011.61
2023-05-02T01:03:16.141Z,1011.55
2023-05-02T01:03:25.466Z,1011.60
2023-05-02T01:03:34.916Z,1011.63
2023-05-02T01:03:44.265Z,1011.61
2023-05-02T01:04:03.106Z,1011.68
2023-05-02T01:04:12.412Z,1011.64
2023-05-02T01:04:21.775Z,1011.71
2023-05-02T01:04:31.130Z,1011.63
2023-05-02T01:04:40.531Z,1011.65
2023-05-02T01:04:49.958Z,1011.66
2023-05-02T01:05:08.733Z,1011.67
2023-05-02T01:05:18.120Z,1011.66
2023-05-02T01:05:27.507Z,1011.62
2023-05-02T01:05:36.888Z,1011.65
2023-05-02T01:05:46.300Z,1011.61
2023-05-02T01:05:55.685Z,1011.59
2023-05-02T01:06:14.518Z,1011.61
2023-05-02T01:06:23.874Z,1011.59
2023-05-02T01:06:33.354Z,1011.62
2023-05-02T01:06:42.797Z,1011.61
2023-05-02T01:06:52.174Z,1011.59
2023-05-02T01:07:01.452Z,1011.56
2023-05-02T01:07:20.224Z,1011.54
2023-05-02T01:07:29.656Z,1011.56
2023-05-02T01:07:38.985Z,1011.59
2023-05-02T01:07:48.371Z,1011.64
2023-05-02T01:07:57.808Z,1011.55
2023-05-02T01:08:07.198Z,1011.56
2023-05-02T01:08:25.984Z,1011.51
2023-05-02T01:08:35.334Z,1011.59
2023-05-02T01:08:44.711Z,1011.57
2023-05-02T01:08:54.150Z,1011.53
2023-05-02T01:09:03.566Z,1011.58
2023-05-02T01:09:12.947Z,1011.59
2023-05-02T01:09:31.763Z,1011.55
2023-05-02T01:09:41.218Z,1011.54
2023-05-02T01:09:50.612Z,1011.53
2023-05-02T01:10:00.311Z,1011.55
2023-05-02T01:10:09.498Z,1011.60
2023-05-02T01:10:18.884Z,1011.62
2023-05-02T01:10:37.675Z,1011.64
2023-05-02T01:10:47.058Z,1011.54
2023-05-02T01:10:56.452Z,1011.53
2023-05-02T01:11:05.874Z,1011.53
2023-05-02T01:11:15.275Z,1011.58
2023-05-02T01:11:24.698Z,1011.55
2023-05-02T01:11:43.480Z,1011.59
2023-05-02T01:11:52.888Z,1011.58
2023-05-02T01:12:02.272Z,1011.54
2023-05-02T01:12:11.715Z,1011.50
2023-05-02T01:12:21.093Z,1011.66
2023-05-02T01:12:33.313Z,1011.55
2023-05-02T01:12:52.098Z,1011.62
2023-05-02T01:13:01.530Z,1011.54
2023-05-02T01:13:10.935Z,1011.54
2023-05-02T01:13:20.296Z,1011.52
2023-05-02T01:13:29.693Z,1011.54
2023-05-02T01:13:39.082Z,1011.54
2023-05-02T01:13:57.854Z,1011.54
2023-05-02T01:14:07.241Z,1011.55
2023-05-02T01:14:16.670Z,1011.51
2023-05-02T01:14:26.040Z,1011.56
2023-05-02T01:14:35.433Z,1011.50
2023-05-02T01:14:44.849Z,1011.50
2023-05-02T01:15:03.638Z,1011.51
2023-05-02T01:15:13.032Z,1011.49
2023-05-02T01:15:22.422Z,1011.53
2023-05-02T01:15:31.816Z,1011.52
2023-05-02T01:15:41.400Z,1011.51
2023-05-02T01:15:50.851Z,1011.54
2023-05-02T01:16:09.639Z,1011.48
2023-05-02T01:16:19.034Z,1011.50
2023-05-02T01:16:28.399Z,1011.51
2023-05-02T01:16:37.955Z,1011.48
2023-05-02T01:16:47.140Z,1011.51
2023-05-02T01:16:56.538Z,1011.49
2023-05-02T01:17:15.336Z,1011.50
2023-05-02T01:17:24.836Z,1011.51
2023-05-02T01:17:34.147Z,1011.46
2023-05-02T01:17:43.526Z,1011.51
2023-05-02T01:17:52.977Z,1011.48
2023-05-02T01:18:02.297Z,1011.51
2023-05-02T01:18:21.118Z,1011.47
2023-05-02T01:18:30.526Z,1011.58
2023-05-02T01:18:39.913Z,1011.48
2023-05-02T01:18:49.321Z,1011.49
2023-05-02T01:18:58.727Z,1011.47
2023-05-02T01:19:08.110Z,1011.45
2023-05-02T01:19:26.912Z,1011.48
2023-05-02T01:19:36.300Z,1011.47
2023-05-02T01:19:45.710Z,1011.49
2023-05-02T01:19:55.116Z,1011.46
2023-05-02T01:20:04.540Z,1011.54
2023-05-02T01:20:13.944Z,1011.48
2023-05-02T01:20:32.742Z,1011.53
2023-05-02T01:20:42.140Z,1011.49
2023-05-02T01:20:51.565Z,1011.50
2023-05-02T01:21:00.961Z,1011.51
2023-05-02T01:21:10.365Z,1011.51
2023-05-02T01:21:19.750Z,1011.52
2023-05-02T01:21:38.506Z,1011.56
2023-05-02T01:21:47.968Z,1011.52
2023-05-02T01:21:57.371Z,1011.51
2023-05-02T01:22:06.790Z,1011.52
2023-05-02T01:22:16.197Z,1011.52
2023-05-02T01:22:25.603Z,1011.53
2023-05-02T01:22:44.512Z,1011.45
2023-05-02T01:22:53.896Z,1011.49
2023-05-02T01:23:03.297Z,1011.50
2023-05-02T01:23:12.705Z,1011.53
2023-05-02T01:23:22.095Z,1011.53
2023-05-02T01:23:31.590Z,1011.58
2023-05-02T01:23:50.384Z,1011.54
2023-05-02T01:23:59.778Z,1011.57
2023-05-02T01:24:09.213Z,1011.52
2023-05-02T01:24:18.574Z,1011.55
2023-05-02T01:24:27.972Z,1011.58
2023-05-02T01:24:37.374Z,1011.59
2023-05-02T01:24:56.285Z,1011.57
2023-05-02T01:25:05.692Z,1011.60
2023-05-02T01:25:15.105Z,1011.51
2023-05-02T01:25:24.506Z,1011.55
2023-05-02T01:25:33.919Z,1011.55
2023-05-02T01:25:43.353Z,1011.53
2023-05-02T01:26:02.181Z,1011.49
2023-05-02T01:26:11.589Z,1011.54
2023-05-02T01:26:20.990Z,1011.54
2023-05-02T01:26:30.386Z,1011.48
2023-05-02T01:26:39.796Z,1011.54
2023-05-02T01:26:49.172Z,1011.55
2023-05-02T01:27:08.235Z,1011.56
2023-05-02T01:27:17.669Z,1011.54
2023-05-02T01:27:27.084Z,1011.58
2023-05-02T01:27:36.473Z,1011.55
2023-05-02T01:27:45.909Z,1011.64
2023-05-02T01:27:55.313Z,1011.59
2023-05-02T01:28:14.184Z,1011.54
2023-05-02T01:28:23.580Z,1011.60
2023-05-02T01:28:32.998Z,1011.62
2023-05-02T01:28:42.404Z,1011.63
2023-05-02T01:28:51.812Z,1011.57
2023-05-02T01:29:01.241Z,1011.65
2023-05-02T01:29:20.013Z,1011.63
2023-05-02T01:29:29.439Z,1011.61
2023-05-02T01:29:38.820Z,1011.60
2023-05-02T01:29:48.230Z,1011.65
2023-05-02T01:29:57.727Z,1011.59
2023-05-02T01:30:07.025Z,1011.68
2023-05-02T01:30:25.847Z,1011.64
2023-05-02T01:30:35.238Z,1011.65
2023-05-02T01:30:44.644Z,1011.74
2023-05-02T01:30:54.051Z,1011.65
2023-05-02T01:31:03.465Z,1011.65
2023-05-02T01:31:12.852Z,1011.67
2023-05-02T01:31:31.677Z,1011.65
2023-05-02T01:31:41.108Z,1011.69
2023-05-02T01:31:50.572Z,1011.65
2023-05-02T01:31:59.959Z,1011.64
2023-05-02T01:32:09.385Z,1011.64
2023-05-02T01:32:18.676Z,1011.62
2023-05-02T01:32:37.587Z,1011.66
2023-05-02T01:32:46.974Z,1011.71
2023-05-02T01:32:56.342Z,1011.68
2023-05-02T01:33:05.788Z,1011.59
2023-05-02T01:33:15.165Z,1011.67
2023-05-02T01:33:24.515Z,1011.62
2023-05-02T01:33:43.302Z,1011.68
2023-05-02T01:33:52.693Z,1011.61
2023-05-02T01:34:02.093Z,1011.63
2023-05-02T01:34:11.501Z,1011.59
2023-05-02T01:34:20.881Z,1011.70
2023-05-02T01:34:30.288Z,1011.63
2023-05-02T01:34:49.092Z,1011.67
2023-05-02T01:34:58.536Z,1011.72
2023-05-02T01:35:07.909Z,1011.62
2023-05-02T01:35:17.369Z,1011.56
2023-05-02T01:35:26.713Z,1011.63
2023-05-02T01:35:36.109Z,1011.59
2023-05-02T01:35:54.945Z,1011.65
2023-05-02T01:36:04.377Z,1011.71
2023-05-02T01:36:13.776Z,1011.65
2023-05-02T01:36:23.170Z,1011.64
2023-05-02T01:36:32.582Z,1011.64
2023-05-02T01:36:41.945Z,1011.61
2023-05-02T01:37:00.719Z,1011.61
2023-05-02T01:37:10.124Z,1011.65
2023-05-02T01:37:19.513Z,1011.63
2023-05-02T01:37:28.915Z,1011.68
2023-05-02T01:37:38.300Z,1011.63
2023-05-02T01:37:47.686Z,1011.62
2023-05-02T01:38:06.537Z,1011.71
2023-05-02T01:38:15.928Z,1011.69
2023-05-02T01:38:25.327Z,1011.68
2023-05-02T01:38:34.727Z,1011.65
2023-05-02T01:38:44.135Z,1011.61
2023-05-02T01:38:53.521Z,1011.61
2023-05-02T01:39:12.294Z,1011.62
2023-05-02T01:39:21.700Z,1011.60
2023-05-02T01:39:31.091Z,1011.66
2023-05-02T01:39:40.474Z,1011.66
2023-05-02T01:39:49.899Z,1011.63
2023-05-02T01:39:59.543Z,1011.71
2023-05-02T01:40:18.124Z,1011.66
2023-05-02T01:40:27.463Z,1011.65
2023-05-02T01:40:36.841Z,1011.59
2023-05-02T01:40:46.254Z,1011.57
2023-05-02T01:40:55.646Z,1011.57
2023-05-02T01:41:05.043Z,1011.64
2023-05-02T01:41:23.819Z,1011.67
2023-05-02T01:41:33.286Z,1011.63
2023-05-02T01:41:42.708Z,1011.62
2023-05-02T01:41:52.137Z,1011.66
2023-05-02T01:42:01.549Z,1011.65
2023-05-02T01:42:10.941Z,1011.63
2023-05-02T01:42:29.727Z,1011.65
2023-05-02T01:42:39.122Z,1011.66
2023-05-02T01:42:48.534Z,1011.68
2023-05-02T01:42:57.939Z,1011.62
2023-05-02T01:43:07.338Z,1011.59
2023-05-02T01:43:16.737Z,1011.64
2023-05-02T01:43:35.515Z,1011.64
2023-05-02T01:43:44.904Z,1011.55
2023-05-02T01:43:54.296Z,1011.66
2023-05-02T01:44:03.704Z,1011.64
2023-05-02T01:44:13.094Z,1011.66
2023-05-02T01:44:22.485Z,1011.66
2023-05-02T01:44:41.237Z,1011.68
2023-05-02T01:44:50.710Z,1011.71
2023-05-02T01:45:00.133Z,1011.67
2023-05-02T01:45:09.485Z,1011.67
2023-05-02T01:45:18.873Z,1011.66
2023-05-02T01:45:28.249Z,1011.68
2023-05-02T01:45:47.026Z,1011.65
2023-05-02T01:45:56.409Z,1011.72
2023-05-02T01:46:05.780Z,1011.65
2023-05-02T01:46:15.221Z,1011.67
2023-05-02T01:46:24.582Z,1011.67
2023-05-02T01:46:33.971Z,1011.62
2023-05-02T01:46:52.771Z,1011.62
2023-05-02T01:47:02.141Z,1011.63
2023-05-02T01:47:11.581Z,1011.66
2023-05-02T01:47:21.014Z,1011.63
2023-05-02T01:47:30.449Z,1011.73
2023-05-02T01:47:39.833Z,1011.64
2023-05-02T01:47:58.713Z,1011.61
2023-05-02T01:48:08.062Z,1011.68
2023-05-02T01:48:17.366Z,1011.71
2023-05-02T01:48:26.762Z,1011.66
2023-05-02T01:48:36.175Z,1011.68
2023-05-02T01:48:45.609Z,1011.73
2023-05-02T01:49:04.381Z,1011.70
2023-05-02T01:49:13.767Z,1011.74
2023-05-02T01:49:23.164Z,1011.80
2023-05-02T01:49:32.547Z,1011.74
2023-05-02T01:49:41.935Z,1011.73
2023-05-02T01:49:51.517Z,1011.71
2023-05-02T01:50:10.343Z,1011.69
2023-05-02T01:50:19.691Z,1011.72
2023-05-02T01:50:29.067Z,1011.74
2023-05-02T01:50:38.458Z,1011.70
2023-05-02T01:50:47.861Z,1011.72
2023-05-02T01:50:57.246Z,1011.71
2023-05-02T01:51:16.039Z,1011.74
2023-05-02T01:51:25.421Z,1011.70
2023-05-02T01:51:34.839Z,1011.70
2023-05-02T01:51:44.240Z,1011.67
2023-05-02T01:51:53.647Z,1011.64
2023-05-02T01:52:03.036Z,1011.74
2023-05-02T01:52:21.818Z,1011.70
2023-05-02T01:52:31.203Z,1011.69
2023-05-02T01:52:40.593Z,1011.76
2023-05-02T01:52:50.004Z,1011.65
2023-05-02T01:52:59.364Z,1011.71
2023-05-02T01:53:08.747Z,1011.63
2023-05-02T01:53:27.536Z,1011.64
2023-05-02T01:53:36.965Z,1011.62
2023-05-02T01:53:46.337Z,1011.69
2023-05-02T01:53:55.743Z,1011.68
2023-05-02T01:54:05.134Z,1011.70
2023-05-02T01:54:14.560Z,1011.68
2023-05-02T01:54:33.349Z,1011.66
2023-05-02T01:54:42.741Z,1011.67
2023-05-02T01:54:52.173Z,1011.67
2023-05-02T01:55:01.563Z,1011.65
2023-05-02T01:55:10.949Z,1011.75
2023-05-02T01:55:20.352Z,1011.71
2023-05-02T01:55:39.173Z,1011.63
2023-05-02T01:55:48.567Z,1011.65
2023-05-02T01:55:57.950Z,1011.72
2023-05-02T01:56:07.345Z,1011.62
2023-05-02T01:56:16.742Z,1011.61
2023-05-02T01:56:26.126Z,1011.59
2023-05-02T01:56:44.922Z,1011.62
2023-05-02T01:56:54.309Z,1011.69
2023-05-02T01:57:03.703Z,1011.68
2023-05-02T01:57:13.079Z,1011.61
2023-05-02T01:57:22.448Z,1011.72
2023-05-02T01:57:31.835Z,1011.65
2023-05-02T01:57:50.602Z,1011.75
2023-05-02T01:57:59.995Z,1011.63
2023-05-02T01:58:09.386Z,1011.63
2023-05-02T01:58:18.780Z,1011.65
2023-05-02T01:58:28.182Z,1011.65
2023-05-02T01:58:37.650Z,1011.73
2023-05-02T01:58:56.428Z,1011.62
2023-05-02T01:59:05.830Z,1011.64
2023-05-02T01:59:15.212Z,1011.68
2023-05-02T01:59:24.619Z,1011.68
2023-05-02T01:59:34.027Z,1011.62
2023-05-02T01:59:43.425Z,1011.71
2023-05-02T02:00:02.625Z,1011.71
2023-05-02T02:00:11.706Z,1011.72
2023-05-02T02:00:21.028Z,1011.65
2023-05-02T02:00:30.436Z,1011.69
2023-05-02T02:00:39.927Z,1011.75
2023-05-02T02:00:49.319Z,1011.72
2023-05-02T02:01:08.129Z,1011.78
2023-05-02T02:01:17.579Z,1011.73
2023-05-02T02:01:27.004Z,1011.66
2023-05-02T02:01:36.462Z,1011.70
2023-05-02T02:01:45.730Z,1011.67
2023-05-02T02:01:55.196Z,1011.67
2023-05-02T02:02:13.987Z,1011.63
2023-05-02T02:02:23.389Z,1011.69
2023-05-02T02:02:32.788Z,1011.70
2023-05-02T02:02:42.198Z,1011.64
2023-05-02T02:02:51.642Z,1011.60
2023-05-02T02:03:01.104Z,1011.63
2023-05-02T02:03:19.929Z,1011.75
2023-05-02T02:03:29.331Z,1011.70
2023-05-02T02:03:38.872Z,1011.75
2023-05-02T02:03:48.134Z,1011.69
2023-05-02T02:03:57.533Z,1011.67
2023-05-02T02:04:06.946Z,1011.72
2023-05-02T02:04:25.800Z,1011.74
2023-05-02T02:04:35.177Z,1011.73
2023-05-02T02:04:44.598Z,1011.72
2023-05-02T02:04:53.955Z,1011.74
2023-05-02T02:05:03.356Z,1011.72
2023-05-02T02:05:12.731Z,1011.77
2023-05-02T02:05:31.537Z,1011.85
2023-05-02T02:05:40.949Z,1011.75
2023-05-02T02:05:50.354Z,1011.72
2023-05-02T02:05:59.793Z,1011.73
2023-05-02T02:06:09.205Z,1011.72
2023-05-02T02:06:18.572Z,1011.78
2023-05-02T02:06:37.351Z,1011.76
2023-05-02T02:06:46.742Z,1011.75
2023-05-02T02:06:56.088Z,1011.72
2023-05-02T02:07:05.510Z,1011.70
2023-05-02T02:07:14.868Z,1011.71
2023-05-02T02:07:24.289Z,1011.73
2023-05-02T02:07:43.116Z,1011.72
2023-05-02T02:07:52.527Z,1011.73
2023-05-02T02:08:01.935Z,1011.73
2023-05-02T02:08:11.361Z,1011.73
2023-05-02T02:08:20.742Z,1011.76
2023-05-02T02:08:30.157Z,1011.77
2023-05-02T02:08:48.949Z,1011.71
2023-05-02T02:08:58.350Z,1011.78
2023-05-02T02:09:07.750Z,1011.79
2023-05-02T02:09:17.184Z,1011.81
2023-05-02T02:09:26.572Z,1011.72
2023-05-02T02:09:35.961Z,1011.79
2023-05-02T02:09:54.784Z,1011.78
2023-05-02T02:10:04.182Z,1011.82
2023-05-02T02:10:13.589Z,1011.77
2023-05-02T02:10:22.980Z,1011.84
2023-05-02T02:10:32.377Z,1011.77
2023-05-02T02:10:41.759Z,1011.80
2023-05-02T02:11:00.578Z,1011.81
2023-05-02T02:11:09.956Z,1011.77
2023-05-02T02:11:19.368Z,1011.75
2023-05-02T02:11:28.788Z,1011.72
2023-05-02T02:11:38.179Z,1011.73
2023-05-02T02:11:47.588Z,1011.78
2023-05-02T02:12:06.379Z,1011.75
2023-05-02T02:12:15.785Z,1011.79
2023-05-02T02:12:25.209Z,1011.76
2023-05-02T02:12:34.608Z,1011.72
2023-05-02T02:12:43.996Z,1011.72
2023-05-02T02:12:53.381Z,1011.73